Time;durP1;ratioP1;P1;durP2;ratioP2;P2;SDS_P1;SDS_P2;PMS_P1;PMS_P2;Temp;Humidity;BMP_temperature;BMP_pressure;BME280_temperature;BME280_humidity;BME280_pressure;Samples;Min_cycle;Max_cycle;Signal;HPM_P1;HPM_P2
2023/10/02 00:00:40;;;;;;;;;;;17.30;99.90;;;;;;5148692;27;19914;-45
2023/10/02 00:03:09;;;;;;;;;;;17.30;99.90;;;;;;5156974;27;19911;-44
2023/10/02 00:05:41;;;;;;;;;;;17.20;99.90;;;;;;5157217;27;20022;-45
2023/10/02 00:08:07;;;;;;;;;;;17.20;99.90;;;;;;5157285;27;20323;-46
2023/10/02 00:10:33;;;;;;;;;;;17.20;99.90;;;;;;5157271;27;20313;-44
2023/10/02 00:12:59;;;;;;;;;;;17.20;99.90;;;;;;5157314;27;19943;-45
2023/10/02 00:15:25;;;;;;;;;;;17.20;99.90;;;;;;5156707;27;19911;-45
2023/10/02 00:17:51;;;;;;;;;;;17.10;99.90;;;;;;5157150;27;19921;-44
2023/10/02 00:20:22;;;;;;;;;;;17.10;99.90;;;;;;5157056;27;19907;-44
2023/10/02 00:22:48;;;;;;;;;;;17.10;99.90;;;;;;5157186;27;19956;-46
2023/10/02 00:25:17;;;;;;;;;;;17.10;99.90;;;;;;5156908;27;19919;-45
2023/10/02 00:27:46;;;;;;;;;;;17.10;99.90;;;;;;5157098;27;20322;-44
2023/10/02 00:30:13;;;;;;;;;;;17.10;99.90;;;;;;5148075;27;19908;-46
2023/10/02 00:32:41;;;;;;;;;;;17.10;99.90;;;;;;5136016;27;20388;-45
2023/10/02 00:35:10;;;;;;;;;;;17.20;99.90;;;;;;5136097;27;19919;-44
2023/10/02 00:37:47;;;;;;;;;;;17.20;99.90;;;;;;5136179;27;20173;-45
2023/10/02 00:40:22;;;;;;;;;;;17.20;99.90;;;;;;5135982;27;20376;-49
2023/10/02 00:42:49;;;;;;;;;;;17.20;99.90;;;;;;5135919;27;19964;-46
2023/10/02 00:45:16;;;;;;;;;;;17.20;99.90;;;;;;5135744;27;20362;-45
2023/10/02 00:47:41;;;;;;;;;;;17.20;99.90;;;;;;5135768;27;19926;-48
2023/10/02 00:50:10;;;;;;;;;;;17.30;99.90;;;;;;5135852;27;19908;-45
2023/10/02 00:52:37;;;;;;;;;;;17.30;99.90;;;;;;5135684;27;19928;-45
2023/10/02 00:55:06;;;;;;;;;;;17.30;99.90;;;;;;5135114;27;19914;-46
2023/10/02 00:57:35;;;;;;;;;;;17.30;99.90;;;;;;5135484;27;19911;-44
2023/10/02 01:00:06;;;;;;;;;;;17.40;99.90;;;;;;5135683;27;19914;-45
2023/10/02 01:02:34;;;;;;;;;;;17.30;99.90;;;;;;5135467;27;20043;-48
2023/10/02 01:05:00;;;;;;;;;;;17.40;99.90;;;;;;5135539;27;19966;-46
2023/10/02 01:07:25;;;;;;;;;;;17.40;99.90;;;;;;5135420;27;19911;-46
2023/10/02 01:10:11;;;;;;;;;;;17.40;99.90;;;;;;5135398;27;20338;-45
2023/10/02 01:13:01;;;;;;;;;;;17.40;99.90;;;;;;5135018;27;19912;-44
2023/10/02 01:15:28;;;;;;;;;;;17.40;99.90;;;;;;5135090;27;19953;-45
2023/10/02 01:17:57;;;;;;;;;;;17.40;99.90;;;;;;5156001;27;20250;-47
2023/10/02 01:20:38;;;;;;;;;;;17.50;99.90;;;;;;5144230;27;19964;-44
2023/10/02 01:23:11;;;;;;;;;;;17.40;99.90;;;;;;5135414;27;19914;-46
2023/10/02 01:25:39;;;;;;;;;;;17.40;99.90;;;;;;5135293;27;20311;-45
2023/10/02 01:28:05;;;;;;;;;;;17.40;99.90;;;;;;5135054;27;19918;-44
2023/10/02 01:30:30;;;;;;;;;;;17.40;99.90;;;;;;5134877;27;19907;-46
2023/10/02 01:33:22;;;;;;;;;;;17.40;99.90;;;;;;5151159;27;19911;-45
2023/10/02 01:35:50;;;;;;;;;;;17.40;99.90;;;;;;5154473;27;20393;-45
2023/10/02 01:38:18;;;;;;;;;;;17.40;99.90;;;;;;5155718;27;19915;-48
2023/10/02 01:40:45;;;;;;;;;;;17.40;99.90;;;;;;5155508;27;19907;-45
2023/10/02 01:43:14;;;;;;;;;;;17.40;99.90;;;;;;5155430;27;20320;-48
2023/10/02 01:45:43;;;;;;;;;;;17.40;99.90;;;;;;5154931;27;19949;-46
2023/10/02 01:48:12;;;;;;;;;;;17.40;99.90;;;;;;5155359;27;19907;-44
2023/10/02 01:50:37;;;;;;;;;;;17.40;99.90;;;;;;5146815;27;20282;-45
2023/10/02 01:53:05;;;;;;;;;;;17.40;99.90;;;;;;5155350;27;19907;-45
2023/10/02 01:55:35;;;;;;;;;;;17.40;99.90;;;;;;5155174;27;19907;-45
2023/10/02 01:58:16;;;;;;;;;;;17.40;99.90;;;;;;5155226;27;20255;-45
2023/10/02 02:00:42;;;;;;;;;;;17.40;99.90;;;;;;5155162;27;19911;-47
2023/10/02 02:03:17;;;;;;;;;;;17.40;99.90;;;;;;5155131;27;19911;-47
2023/10/02 02:05:46;;;;;;;;;;;17.40;99.90;;;;;;5154902;27;19915;-46
2023/10/02 02:08:22;;;;;;;;;;;17.50;99.90;;;;;;5154056;27;20269;-46
2023/10/02 02:10:51;;;;;;;;;;;17.50;99.90;;;;;;5154960;27;19907;-44
2023/10/02 02:13:21;;;;;;;;;;;17.50;99.90;;;;;;5154895;27;20377;-43
2023/10/02 02:15:51;;;;;;;;;;;17.50;99.90;;;;;;5154476;27;19911;-45
2023/10/02 02:18:19;;;;;;;;;;;17.50;99.90;;;;;;5154783;27;19915;-44
2023/10/02 02:20:57;;;;;;;;;;;17.50;99.90;;;;;;5154763;27;20292;-45
2023/10/02 02:23:28;;;;;;;;;;;17.50;99.90;;;;;;5154887;27;19959;-45
2023/10/02 02:25:54;;;;;;;;;;;17.50;99.90;;;;;;5154377;27;19918;-44
2023/10/02 02:28:20;;;;;;;;;;;17.50;99.90;;;;;;5154811;27;20439;-45
2023/10/02 02:30:47;;;;;;;;;;;17.50;99.90;;;;;;5154621;27;19919;-46
2023/10/02 02:33:13;;;;;;;;;;;17.50;99.90;;;;;;5154729;27;19915;-47
2023/10/02 02:35:44;;;;;;;;;;;17.50;99.90;;;;;;5154296;27;20297;-46
2023/10/02 02:38:16;;;;;;;;;;;17.60;99.90;;;;;;5154666;27;20366;-44
2023/10/02 02:40:41;;;;;;;;;;;17.60;99.90;;;;;;5154568;27;19911;-46
2023/10/02 02:43:19;;;;;;;;;;;17.60;99.90;;;;;;5154610;27;19930;-44
2023/10/02 02:45:45;;;;;;;;;;;17.50;99.90;;;;;;5152277;27;20389;-45
2023/10/02 02:48:10;;;;;;;;;;;17.50;99.90;;;;;;5133801;27;19954;-45
2023/10/02 02:50:40;;;;;;;;;;;17.50;99.90;;;;;;5133697;28;19915;-44
2023/10/02 02:53:16;;;;;;;;;;;17.50;99.90;;;;;;5133722;28;19908;-46
2023/10/02 02:55:45;;;;;;;;;;;17.50;99.90;;;;;;5133622;28;20030;-46
2023/10/02 02:58:11;;;;;;;;;;;17.50;99.90;;;;;;5133613;28;19952;-46
2023/10/02 03:00:39;;;;;;;;;;;17.40;99.90;;;;;;5133541;28;19907;-45
2023/10/02 03:03:29;;;;;;;;;;;17.40;99.90;;;;;;5133661;28;19998;-45
2023/10/02 03:05:52;;;;;;;;;;;17.40;99.90;;;;;;5133249;27;19919;-45
2023/10/02 03:08:19;;;;;;;;;;;17.40;99.90;;;;;;5133343;27;19911;-46
2023/10/02 03:10:47;;;;;;;;;;;17.30;99.90;;;;;;5133535;28;20014;-45
2023/10/02 03:13:16;;;;;;;;;;;17.30;99.90;;;;;;5133336;28;20366;-48
2023/10/02 03:15:53;;;;;;;;;;;17.30;99.90;;;;;;5133436;28;19912;-46
2023/10/02 03:18:54;;;;;;;;;;;17.30;99.90;;;;;;5133762;27;20373;-44
2023/10/02 03:21:24;;;;;;;;;;;17.30;99.90;;;;;;5133401;27;19908;-47
2023/10/02 03:23:53;;;;;;;;;;;17.30;99.90;;;;;;5137539;27;19950;-44
2023/10/02 03:29:02;;;;;;;;;;;17.20;99.90;;;;;;5137494;27;19911;-45
2023/10/02 03:31:37;;;;;;;;;;;17.20;99.90;;;;;;5137224;27;19907;-45
2023/10/02 03:36:52;;;;;;;;;;;17.20;99.90;;;;;;5137700;27;19921;-44
2023/10/02 03:39:23;;;;;;;;;;;17.10;99.90;;;;;;5137298;27;19908;-45
2023/10/02 03:41:55;;;;;;;;;;;17.10;99.90;;;;;;5137147;27;20342;-47
2023/10/02 03:44:24;;;;;;;;;;;17.10;99.90;;;;;;5136983;27;20307;-47
2023/10/02 03:46:51;;;;;;;;;;;17.10;99.90;;;;;;5137050;27;19915;-45
2023/10/02 03:49:18;;;;;;;;;;;17.10;99.90;;;;;;5136985;27;20007;-47
2023/10/02 03:51:44;;;;;;;;;;;17.00;99.90;;;;;;5137068;27;19994;-48
2023/10/02 03:54:23;;;;;;;;;;;17.00;99.90;;;;;;5136887;27;20005;-44
2023/10/02 03:56:55;;;;;;;;;;;17.00;99.90;;;;;;5136930;27;19975;-45
2023/10/02 03:59:22;;;;;;;;;;;16.90;99.90;;;;;;5137196;27;19953;-44
2023/10/02 04:01:49;;;;;;;;;;;16.90;99.90;;;;;;5136802;27;20277;-46
2023/10/02 04:06:42;;;;;;;;;;;16.80;99.90;;;;;;5148454;27;20009;-44
2023/10/02 04:09:12;;;;;;;;;;;16.70;99.90;;;;;;5157413;27;19937;-45
2023/10/02 04:11:38;;;;;;;;;;;16.70;99.90;;;;;;5157303;27;19929;-45
2023/10/02 04:14:16;;;;;;;;;;;16.70;99.90;;;;;;5157257;27;20390;-46
2023/10/02 04:16:46;;;;;;;;;;;16.70;99.90;;;;;;5157255;27;19911;-50
2023/10/02 04:19:24;;;;;;;;;;;16.60;99.90;;;;;;5157054;27;19907;-46
2023/10/02 04:21:56;;;;;;;;;;;16.60;99.90;;;;;;5157134;27;19960;-45
2023/10/02 04:24:24;;;;;;;;;;;16.60;99.90;;;;;;5157085;27;19912;-46
2023/10/02 04:26:54;;;;;;;;;;;16.60;99.90;;;;;;5157007;27;20006;-47
2023/10/02 04:29:26;;;;;;;;;;;16.60;99.90;;;;;;5156876;27;20006;-44
2023/10/02 04:32:11;;;;;;;;;;;16.60;99.90;;;;;;5155854;27;19934;-48
2023/10/02 04:34:46;;;;;;;;;;;16.60;99.90;;;;;;5156507;27;20366;-46
2023/10/02 04:37:20;;;;;;;;;;;16.60;99.90;;;;;;5137503;27;19977;-45
2023/10/02 04:42:25;;;;;;;;;;;16.50;99.90;;;;;;5136071;27;19994;-48
2023/10/02 04:44:56;;;;;;;;;;;16.50;99.90;;;;;;5135876;27;19911;-45
2023/10/02 04:47:23;;;;;;;;;;;16.50;99.90;;;;;;5135956;27;19911;-48
2023/10/02 04:55:22;;;;;;;;;;;16.40;99.90;;;;;;5136158;27;19914;-44
2023/10/02 04:57:50;;;;;;;;;;;16.40;99.90;;;;;;5139756;27;19934;-46
2023/10/02 05:00:32;;;;;;;;;;;16.30;99.90;;;;;;5155988;27;19915;-45
2023/10/02 05:03:17;;;;;;;;;;;16.30;99.90;;;;;;5156333;27;19907;-46
2023/10/02 05:05:47;;;;;;;;;;;16.30;99.90;;;;;;5156049;27;19916;-44
2023/10/02 05:08:20;;;;;;;;;;;16.30;99.90;;;;;;5156294;27;19907;-47
2023/10/02 05:10:47;;;;;;;;;;;16.20;99.90;;;;;;5156118;27;19915;-44
2023/10/02 05:13:13;;;;;;;;;;;16.20;99.90;;;;;;5155666;27;20006;-43
2023/10/02 05:16:06;;;;;;;;;;;16.10;99.90;;;;;;5155776;27;20357;-44
2023/10/02 05:18:24;;;;;;;;;;;16.10;99.90;;;;;;5155822;27;20433;-46
2023/10/02 05:20:53;;;;;;;;;;;16.10;99.90;;;;;;5156021;27;19997;-44
2023/10/02 05:23:21;;;;;;;;;;;16.10;99.90;;;;;;5155932;27;19921;-47
2023/10/02 05:25:47;;;;;;;;;;;16.00;99.90;;;;;;5155617;27;20281;-45
2023/10/02 05:28:14;;;;;;;;;;;16.00;99.90;;;;;;5153927;27;19911;-44
2023/10/02 05:30:43;;;;;;;;;;;16.00;99.90;;;;;;5155654;27;19907;-46
2023/10/02 05:33:15;;;;;;;;;;;16.00;99.90;;;;;;5155766;27;19907;-45
2023/10/02 05:35:45;;;;;;;;;;;16.00;99.90;;;;;;5155363;27;19925;-45
2023/10/02 05:38:16;;;;;;;;;;;15.90;99.90;;;;;;5155589;27;19907;-45
2023/10/02 05:40:47;;;;;;;;;;;15.90;99.90;;;;;;5155538;27;19911;-46
2023/10/02 05:43:17;;;;;;;;;;;15.90;99.90;;;;;;5155377;27;20302;-44
2023/10/02 05:48:14;;;;;;;;;;;15.90;99.90;;;;;;5155437;27;19919;-47
2023/10/02 05:50:59;;;;;;;;;;;15.90;99.90;;;;;;5146465;27;19950;-48
2023/10/02 05:53:26;;;;;;;;;;;15.90;99.90;;;;;;5134999;27;19912;-47
2023/10/02 05:56:05;;;;;;;;;;;15.90;99.90;;;;;;5125408;27;19937;-45
2023/10/02 05:58:37;;;;;;;;;;;15.90;99.90;;;;;;5119458;27;19950;-44
2023/10/02 06:01:12;;;;;;;;;;;15.90;99.90;;;;;;5131612;27;19911;-47
2023/10/02 06:03:37;;;;;;;;;;;15.90;99.90;;;;;;5134320;27;19950;-46
2023/10/02 06:06:15;;;;;;;;;;;15.90;99.90;;;;;;5142166;27;19966;-44
2023/10/02 06:08:51;;;;;;;;;;;15.90;99.90;;;;;;5135933;27;19918;-44
2023/10/02 06:11:26;;;;;;;;;;;16.00;99.90;;;;;;5142660;27;19952;-45
2023/10/02 06:13:54;;;;;;;;;;;16.00;99.90;;;;;;5138203;27;20006;-45
2023/10/02 06:16:23;;;;;;;;;;;16.00;99.90;;;;;;5132981;27;20366;-48
2023/10/02 06:19:00;;;;;;;;;;;16.00;99.90;;;;;;5138434;27;19912;-45
2023/10/02 06:21:33;;;;;;;;;;;16.00;99.90;;;;;;5127397;27;19912;-45
2023/10/02 06:23:59;;;;;;;;;;;16.00;99.90;;;;;;5142638;27;19937;-45
2023/10/02 06:26:26;;;;;;;;;;;16.00;99.90;;;;;;5133686;27;19916;-47
2023/10/02 06:29:13;;;;;;;;;;;16.10;99.90;;;;;;5133864;27;19911;-45
2023/10/02 06:31:41;;;;;;;;;;;16.10;99.90;;;;;;5133724;27;20316;-45
2023/10/02 06:34:11;;;;;;;;;;;16.10;99.90;;;;;;5133485;27;20358;-46
2023/10/02 06:36:48;;;;;;;;;;;16.10;99.90;;;;;;5133740;27;20267;-45
2023/10/02 06:39:17;;;;;;;;;;;16.20;99.90;;;;;;5137150;27;20346;-44
2023/10/02 06:41:44;;;;;;;;;;;16.30;99.90;;;;;;5140858;27;20392;-45
2023/10/02 06:44:16;;;;;;;;;;;16.30;99.90;;;;;;5145144;27;19997;-44
2023/10/02 06:46:53;;;;;;;;;;;16.40;99.90;;;;;;5138410;27;19978;-45
2023/10/02 06:49:20;;;;;;;;;;;16.50;99.90;;;;;;5138555;27;19911;-47
2023/10/02 06:51:49;;;;;;;;;;;16.50;99.90;;;;;;5145904;27;19916;-45
2023/10/02 06:54:18;;;;;;;;;;;16.60;99.90;;;;;;5145196;27;19949;-47
2023/10/02 06:56:44;;;;;;;;;;;16.70;99.90;;;;;;5147280;27;19911;-44
2023/10/02 06:59:10;;;;;;;;;;;16.70;99.90;;;;;;5150791;27;20369;-49
2023/10/02 07:01:35;;;;;;;;;;;16.80;99.90;;;;;;5148135;27;19975;-44
2023/10/02 07:04:09;;;;;;;;;;;16.80;99.90;;;;;;5147184;27;19911;-44
2023/10/02 07:06:38;;;;;;;;;;;16.90;99.90;;;;;;5157438;27;20270;-45
2023/10/02 07:09:10;;;;;;;;;;;16.90;99.90;;;;;;5149234;27;19907;-47
2023/10/02 07:11:36;;;;;;;;;;;16.90;99.90;;;;;;5150933;27;19915;-44
2023/10/02 07:14:04;;;;;;;;;;;17.00;99.90;;;;;;5150194;27;19907;-45
2023/10/02 07:16:32;;;;;;;;;;;17.00;99.90;;;;;;5156610;27;20417;-44
2023/10/02 07:18:59;;;;;;;;;;;17.00;99.90;;;;;;5149909;27;19911;-45
2023/10/02 07:21:27;;;;;;;;;;;17.00;99.90;;;;;;5145912;27;19931;-44
2023/10/02 07:23:53;;;;;;;;;;;17.10;99.90;;;;;;5141200;27;19914;-46
2023/10/02 07:26:19;;;;;;;;;;;17.20;99.90;;;;;;5135874;27;19927;-45
2023/10/02 07:28:51;;;;;;;;;;;17.10;99.90;;;;;;5151149;27;20327;-45
2023/10/02 07:31:17;;;;;;;;;;;17.20;99.90;;;;;;5132286;27;19907;-46
2023/10/02 07:33:44;;;;;;;;;;;17.20;99.90;;;;;;5149954;27;19918;-46
2023/10/02 07:36:16;;;;;;;;;;;17.20;99.90;;;;;;5127723;27;19919;-47
2023/10/02 07:38:45;;;;;;;;;;;17.20;99.90;;;;;;5130846;27;19920;-47
2023/10/02 07:41:23;;;;;;;;;;;17.30;99.90;;;;;;5123815;27;19912;-48
2023/10/02 07:43:55;;;;;;;;;;;17.20;99.90;;;;;;5116613;27;20350;-46
2023/10/02 07:46:23;;;;;;;;;;;17.30;99.90;;;;;;5123033;27;20393;-45
2023/10/02 07:49:00;;;;;;;;;;;17.30;99.90;;;;;;5111219;27;19912;-45
2023/10/02 07:51:35;;;;;;;;;;;17.40;99.90;;;;;;5128823;27;19968;-46
2023/10/02 07:54:06;;;;;;;;;;;17.40;99.90;;;;;;5116840;27;19916;-45
2023/10/02 07:56:33;;;;;;;;;;;17.40;99.90;;;;;;5122994;27;19915;-47
2023/10/02 07:59:02;;;;;;;;;;;17.50;99.90;;;;;;5121562;27;20293;-45
2023/10/02 08:01:27;;;;;;;;;;;17.50;99.90;;;;;;5119290;28;19958;-46
2023/10/02 08:03:55;;;;;;;;;;;17.60;99.90;;;;;;5119345;28;19955;-45
2023/10/02 08:06:21;;;;;;;;;;;17.60;99.90;;;;;;5109275;28;19920;-47
2023/10/02 08:09:35;;;;;;;;;;;17.70;99.90;;;;;;5113750;28;19954;-45
2023/10/02 08:11:41;;;;;;;;;;;17.70;99.90;;;;;;5110672;28;19911;-45
2023/10/02 08:14:15;;;;;;;;;;;17.80;99.90;;;;;;5130939;27;20333;-45
2023/10/02 08:16:58;;;;;;;;;;;17.80;99.90;;;;;;5135947;27;19911;-45
2023/10/02 08:19:24;;;;;;;;;;;17.80;99.90;;;;;;5136528;27;19907;-44
2023/10/02 08:21:50;;;;;;;;;;;17.80;99.90;;;;;;5136426;27;19933;-44
2023/10/02 08:24:15;;;;;;;;;;;17.90;99.90;;;;;;5136388;27;19942;-46
2023/10/02 08:26:43;;;;;;;;;;;17.90;99.90;;;;;;5135076;27;19919;-45
2023/10/02 08:29:09;;;;;;;;;;;18.00;99.90;;;;;;5113660;28;20286;-44
2023/10/02 08:31:42;;;;;;;;;;;18.00;99.90;;;;;;5113539;28;19919;-45
2023/10/02 08:34:12;;;;;;;;;;;18.10;99.90;;;;;;5102116;28;19919;-45
2023/10/02 08:36:38;;;;;;;;;;;18.20;99.90;;;;;;5115213;28;19915;-46
2023/10/02 08:39:05;;;;;;;;;;;18.30;99.90;;;;;;5120613;27;19911;-46
2023/10/02 08:41:30;;;;;;;;;;;18.40;99.90;;;;;;5127913;27;19908;-46
2023/10/02 08:44:00;;;;;;;;;;;18.50;99.90;;;;;;5122484;27;19965;-45
2023/10/02 08:46:26;;;;;;;;;;;18.60;99.90;;;;;;5133087;27;19923;-45
2023/10/02 08:48:54;;;;;;;;;;;18.60;99.90;;;;;;5151281;27;20372;-47
2023/10/02 08:51:29;;;;;;;;;;;18.60;99.90;;;;;;5144461;27;19974;-44
2023/10/02 08:53:56;;;;;;;;;;;18.70;99.90;;;;;;5138908;27;19971;-45
2023/10/02 08:56:21;;;;;;;;;;;18.80;99.90;;;;;;5147225;27;19911;-44
2023/10/02 09:01:34;;;;;;;;;;;18.80;99.90;;;;;;5156042;27;19926;-46
2023/10/02 09:06:58;;;;;;;;;;;18.90;99.90;;;;;;5157018;27;19991;-45
2023/10/02 09:09:27;;;;;;;;;;;19.00;99.90;;;;;;5145044;27;19907;-47
2023/10/02 09:11:57;;;;;;;;;;;19.10;99.90;;;;;;5134959;27;20370;-44
2023/10/02 09:17:07;;;;;;;;;;;19.20;99.90;;;;;;5134266;27;19928;-46
2023/10/02 09:19:34;;;;;;;;;;;19.30;99.90;;;;;;5134656;27;19907;-46
2023/10/02 09:22:11;;;;;;;;;;;19.30;99.90;;;;;;5134688;27;19949;-46
2023/10/02 09:24:55;;;;;;;;;;;19.30;99.90;;;;;;5133949;27;19915;-46
2023/10/02 09:27:27;;;;;;;;;;;19.30;99.90;;;;;;5134078;27;20439;-46
2023/10/02 09:32:47;;;;;;;;;;;19.40;99.90;;;;;;5146827;27;19918;-46
2023/10/02 09:35:23;;;;;;;;;;;19.60;99.90;;;;;;5154902;27;19919;-49
2023/10/02 09:38:13;;;;;;;;;;;19.60;99.90;;;;;;5155343;27;19907;-44
2023/10/02 09:43:28;;;;;;;;;;;19.70;99.90;;;;;;5155154;27;20258;-43
2023/10/02 09:45:55;;;;;;;;;;;19.90;99.90;;;;;;5155290;27;20052;-45
2023/10/02 09:51:17;;;;;;;;;;;20.10;99.90;;;;;;5137205;27;19935;-46
2023/10/02 09:54:02;;;;;;;;;;;20.10;99.90;;;;;;5134455;27;19911;-44
2023/10/02 09:56:34;;;;;;;;;;;20.20;99.90;;;;;;5134060;27;19959;-46
2023/10/02 09:59:18;;;;;;;;;;;20.10;99.90;;;;;;5134175;27;19939;-45
2023/10/02 10:07:46;;;;;;;;;;;20.10;99.90;;;;;;5133994;27;20006;-46
2023/10/02 10:10:27;;;;;;;;;;;20.10;99.90;;;;;;5113343;28;19919;-46
2023/10/02 10:12:56;;;;;;;;;;;20.00;99.90;;;;;;5113541;28;19977;-44
2023/10/02 10:15:25;;;;;;;;;;;20.10;99.90;;;;;;5113738;28;19908;-45
2023/10/02 10:17:51;;;;;;;;;;;20.10;99.90;;;;;;5113143;28;20308;-48
2023/10/02 10:20:20;;;;;;;;;;;20.10;99.90;;;;;;5113155;28;20358;-46
2023/10/02 10:22:51;;;;;;;;;;;20.10;99.90;;;;;;5113106;28;19908;-46
2023/10/02 10:28:05;;;;;;;;;;;20.20;99.90;;;;;;5112458;28;20010;-45
2023/10/02 10:30:39;;;;;;;;;;;20.30;99.90;;;;;;5113156;28;19999;-45
2023/10/02 10:35:37;;;;;;;;;;;20.40;99.90;;;;;;5113048;28;20389;-47
2023/10/02 10:38:26;;;;;;;;;;;20.40;99.90;;;;;;5119297;27;19919;-45
2023/10/02 10:41:01;;;;;;;;;;;20.40;99.90;;;;;;5154239;27;20009;-46
2023/10/02 10:43:43;;;;;;;;;;;20.50;99.90;;;;;;5154204;27;19911;-48
2023/10/02 10:46:13;;;;;;;;;;;20.60;99.90;;;;;;5153928;27;19937;-45
2023/10/02 10:48:40;;;;;;;;;;;20.70;99.90;;;;;;5153956;27;19908;-45
2023/10/02 10:51:20;;;;;;;;;;;20.80;99.90;;;;;;5151701;27;19911;-45
2023/10/02 10:53:52;;;;;;;;;;;21.00;99.90;;;;;;5142647;27;19916;-45
2023/10/02 10:56:22;;;;;;;;;;;21.20;99.90;;;;;;5148391;27;20353;-46
2023/10/02 10:59:02;;;;;;;;;;;21.30;99.90;;;;;;5148836;27;19926;-45
2023/10/02 11:01:27;;;;;;;;;;;21.50;99.90;;;;;;5153427;27;19964;-45
2023/10/02 11:04:01;;;;;;;;;;;21.80;99.90;;;;;;5153932;27;19912;-45
2023/10/02 11:06:28;;;;;;;;;;;21.90;99.90;;;;;;5154133;27;19919;-46
2023/10/02 11:09:11;;;;;;;;;;;22.00;99.90;;;;;;5153835;27;19909;-46
2023/10/02 11:11:48;;;;;;;;;;;22.00;99.90;;;;;;5136623;27;19954;-48
2023/10/02 11:14:20;;;;;;;;;;;21.90;99.90;;;;;;5133257;28;19907;-45
2023/10/02 11:16:53;;;;;;;;;;;21.90;99.90;;;;;;5132988;28;19930;-46
2023/10/02 11:24:43;;;;;;;;;;;21.70;99.90;;;;;;5154153;27;19947;-44
2023/10/02 11:27:11;;;;;;;;;;;21.60;99.90;;;;;;5154095;27;19915;-47
2023/10/02 11:29:43;;;;;;;;;;;21.60;99.90;;;;;;5153983;27;19911;-46
2023/10/02 11:32:23;;;;;;;;;;;21.60;99.90;;;;;;5153211;27;19907;-48
2023/10/02 11:34:49;;;;;;;;;;;21.50;99.90;;;;;;5153152;27;19919;-45
2023/10/02 11:37:15;;;;;;;;;;;21.50;99.90;;;;;;5149456;27;20442;-46
2023/10/02 11:39:41;;;;;;;;;;;21.50;99.90;;;;;;5154095;27;19907;-46
2023/10/02 11:42:07;;;;;;;;;;;21.60;99.90;;;;;;5142947;27;19937;-46
2023/10/02 11:44:32;;;;;;;;;;;21.60;99.90;;;;;;5136751;27;20389;-46
2023/10/02 11:46:59;;;;;;;;;;;21.60;99.90;;;;;;5136342;27;19927;-45
2023/10/02 11:49:29;;;;;;;;;;;21.50;99.90;;;;;;5136733;27;19914;-46
2023/10/02 11:52:00;;;;;;;;;;;21.50;99.90;;;;;;5136859;27;19916;-46
2023/10/02 11:54:26;;;;;;;;;;;21.50;99.90;;;;;;5136609;27;19914;-48
2023/10/02 11:56:51;;;;;;;;;;;21.60;99.90;;;;;;5136123;27;20002;-46
2023/10/02 11:59:17;;;;;;;;;;;21.50;99.90;;;;;;5137080;27;19997;-47
2023/10/02 12:01:45;;;;;;;;;;;21.60;99.90;;;;;;5136585;27;19911;-46
2023/10/02 12:04:10;;;;;;;;;;;21.60;99.90;;;;;;5136632;27;19915;-47
2023/10/02 12:06:38;;;;;;;;;;;21.70;99.90;;;;;;5136465;27;19920;-46
2023/10/02 12:09:04;;;;;;;;;;;21.70;99.90;;;;;;5136843;27;19912;-44
2023/10/02 12:11:34;;;;;;;;;;;21.70;99.90;;;;;;5136615;27;19907;-46
2023/10/02 12:13:59;;;;;;;;;;;21.80;99.90;;;;;;5136594;27;20006;-45
2023/10/02 12:16:26;;;;;;;;;;;21.80;99.90;;;;;;5136406;27;19995;-46
2023/10/02 12:18:52;;;;;;;;;;;21.90;99.90;;;;;;5136513;27;19908;-45
2023/10/02 12:21:19;;;;;;;;;;;21.90;99.90;;;;;;5137413;27;20389;-45
2023/10/02 12:23:46;;;;;;;;;;;21.90;99.90;;;;;;5135933;27;19962;-47
2023/10/02 12:26:15;;;;;;;;;;;21.90;99.90;;;;;;5136466;27;19959;-45
2023/10/02 12:28:41;;;;;;;;;;;21.90;99.90;;;;;;5136205;27;19948;-45
2023/10/02 12:31:12;;;;;;;;;;;21.90;99.90;;;;;;5136372;27;19957;-45
2023/10/02 12:33:41;;;;;;;;;;;22.00;99.90;;;;;;5136208;27;19907;-46
2023/10/02 12:36:17;;;;;;;;;;;22.00;99.90;;;;;;5132148;27;20305;-45
2023/10/02 12:38:43;;;;;;;;;;;22.00;99.90;;;;;;5135643;27;19919;-46
2023/10/02 12:41:15;;;;;;;;;;;22.00;99.90;;;;;;5135603;27;19911;-46
2023/10/02 12:43:45;;;;;;;;;;;22.00;99.90;;;;;;5135676;27;19957;-47
2023/10/02 12:46:14;;;;;;;;;;;22.10;99.90;;;;;;5135468;27;19919;-44
2023/10/02 12:48:44;;;;;;;;;;;22.10;99.90;;;;;;5135745;27;19915;-44
2023/10/02 12:51:09;;;;;;;;;;;22.10;99.90;;;;;;5140191;27;19934;-45
2023/10/02 12:53:36;;;;;;;;;;;22.20;99.90;;;;;;5135242;27;20358;-45
2023/10/02 12:56:02;;;;;;;;;;;22.30;99.90;;;;;;5135195;27;19915;-45
2023/10/02 12:58:27;;;;;;;;;;;22.40;99.90;;;;;;5135414;27;20354;-45
2023/10/02 13:00:56;;;;;;;;;;;22.40;99.90;;;;;;5135102;27;19918;-47
2023/10/02 13:03:21;;;;;;;;;;;22.50;99.90;;;;;;5135160;27;20372;-46
2023/10/02 13:05:48;;;;;;;;;;;22.50;99.90;;;;;;5134356;27;19922;-48
2023/10/02 13:08:14;;;;;;;;;;;22.60;99.90;;;;;;5134953;27;19912;-47
2023/10/02 13:10:39;;;;;;;;;;;22.60;99.90;;;;;;5133648;27;20284;-46
2023/10/02 13:13:05;;;;;;;;;;;22.70;99.90;;;;;;5135204;27;19907;-45
2023/10/02 13:15:32;;;;;;;;;;;22.70;99.90;;;;;;5134946;27;20453;-45
2023/10/02 13:17:58;;;;;;;;;;;22.70;99.90;;;;;;5135208;27;19964;-45
2023/10/02 13:20:24;;;;;;;;;;;22.80;99.90;;;;;;5133215;27;19911;-45
2023/10/02 13:22:53;;;;;;;;;;;22.90;99.90;;;;;;5127245;27;19922;-48
2023/10/02 13:25:22;;;;;;;;;;;22.80;99.90;;;;;;5140015;27;19918;-47
2023/10/02 13:27:48;;;;;;;;;;;22.80;99.90;;;;;;5137807;27;19915;-44
2023/10/02 13:30:19;;;;;;;;;;;22.90;99.90;;;;;;5135772;27;20018;-46
2023/10/02 13:32:44;;;;;;;;;;;23.20;99.90;;;;;;5135237;27;19966;-46
2023/10/02 13:35:10;;;;;;;;;;;23.30;99.90;;;;;;5135016;27;19976;-45
2023/10/02 13:37:36;;;;;;;;;;;23.40;99.90;;;;;;5135369;27;19911;-45
2023/10/02 13:40:04;;;;;;;;;;;23.40;99.90;;;;;;5121338;27;19911;-45
2023/10/02 13:42:30;;;;;;;;;;;23.50;99.90;;;;;;5114785;28;20071;-45
2023/10/02 13:44:55;;;;;;;;;;;23.60;99.90;;;;;;5126994;27;19954;-46
2023/10/02 13:47:22;;;;;;;;;;;23.70;99.90;;;;;;5135179;27;20397;-46
2023/10/02 13:49:48;;;;;;;;;;;23.70;99.90;;;;;;5138862;27;19920;-45
2023/10/02 13:52:13;;;;;;;;;;;23.70;99.90;;;;;;5138854;27;20307;-45
2023/10/02 13:54:39;;;;;;;;;;;23.70;99.90;;;;;;5138880;27;19918;-45
2023/10/02 13:57:05;;;;;;;;;;;23.60;99.90;;;;;;5135414;27;19960;-46
2023/10/02 13:59:31;;;;;;;;;;;23.50;99.90;;;;;;5143539;27;20345;-45
2023/10/02 14:01:56;;;;;;;;;;;23.50;99.90;;;;;;5138996;27;19921;-44
2023/10/02 14:04:25;;;;;;;;;;;23.60;99.90;;;;;;5134950;27;19908;-46
2023/10/02 14:06:52;;;;;;;;;;;23.70;99.90;;;;;;5138512;27;20343;-47
2023/10/02 14:09:20;;;;;;;;;;;23.90;99.90;;;;;;5134288;27;19918;-43
2023/10/02 14:11:46;;;;;;;;;;;24.10;99.90;;;;;;5133838;27;20354;-46
2023/10/02 14:14:11;;;;;;;;;;;24.20;99.90;;;;;;5134226;27;19915;-45
2023/10/02 14:16:40;;;;;;;;;;;24.30;99.90;;;;;;5133994;27;20289;-45
2023/10/02 14:19:06;;;;;;;;;;;24.30;99.90;;;;;;5134040;27;19933;-46
2023/10/02 14:21:32;;;;;;;;;;;24.20;99.90;;;;;;5134015;27;19911;-45
2023/10/02 14:23:58;;;;;;;;;;;24.10;99.90;;;;;;5120288;27;19919;-46
2023/10/02 14:26:24;;;;;;;;;;;23.90;99.90;;;;;;5113902;28;20010;-46
2023/10/02 14:28:51;;;;;;;;;;;23.90;99.90;;;;;;5114111;28;20030;-46
2023/10/02 14:31:23;;;;;;;;;;;23.70;99.90;;;;;;5122663;27;20333;-45
2023/10/02 14:33:48;;;;;;;;;;;23.70;99.90;;;;;;5134325;27;19954;-45
2023/10/02 14:36:14;;;;;;;;;;;23.60;99.90;;;;;;5134087;27;19961;-45
2023/10/02 14:38:40;;;;;;;;;;;23.50;99.90;;;;;;5134353;27;19961;-46
2023/10/02 14:41:09;;;;;;;;;;;23.40;99.90;;;;;;5134472;27;19911;-49
2023/10/02 14:43:34;;;;;;;;;;;23.30;99.90;;;;;;5153609;27;19911;-45
2023/10/02 14:46:00;;;;;;;;;;;23.30;99.90;;;;;;5155141;27;19915;-45
2023/10/02 14:48:27;;;;;;;;;;;23.30;99.90;;;;;;5154688;27;20001;-46
2023/10/02 14:50:55;;;;;;;;;;;23.30;99.90;;;;;;5155048;27;19975;-46
2023/10/02 14:53:21;;;;;;;;;;;23.30;99.90;;;;;;5128443;27;19918;-45
2023/10/02 14:55:48;;;;;;;;;;;23.20;99.90;;;;;;5134310;28;19912;-46
2023/10/02 14:58:15;;;;;;;;;;;23.20;99.90;;;;;;5134482;28;19952;-45
2023/10/02 15:00:40;;;;;;;;;;;23.20;99.90;;;;;;5134044;28;20004;-47
2023/10/02 15:03:06;;;;;;;;;;;23.30;99.90;;;;;;5125815;28;19945;-44
2023/10/02 15:05:31;;;;;;;;;;;23.40;99.90;;;;;;5113676;28;19916;-49
2023/10/02 15:07:57;;;;;;;;;;;23.40;99.90;;;;;;5112986;28;20008;-46
2023/10/02 15:10:26;;;;;;;;;;;23.30;99.90;;;;;;5118069;27;19908;-46
2023/10/02 15:12:52;;;;;;;;;;;23.20;99.90;;;;;;5128061;27;19915;-46
2023/10/02 15:15:22;;;;;;;;;;;23.10;99.90;;;;;;5127533;27;19911;-45
2023/10/02 15:17:48;;;;;;;;;;;23.00;99.90;;;;;;5127127;27;19978;-44
2023/10/02 15:20:14;;;;;;;;;;;22.90;99.90;;;;;;5137111;27;20354;-46
2023/10/02 15:22:41;;;;;;;;;;;22.90;99.90;;;;;;5137353;27;19907;-45